Time;durP1;ratioP1;P1;durP2;ratioP2;P2;SDS_P1;SDS_P2;PMS_P1;PMS_P2;Temp;Humidity;BMP_temperature;BMP_pressure;BME280_temperature;BME280_humidity;BME280_pressure;Samples;Min_cycle;Max_cycle;Signal;HPM_P1;HPM_P2
2022/09/18 00:00:04;;;;;;;;;;;9.50;99.90;;;;;;5073512;28;19920;-56
2022/09/18 00:02:30;;;;;;;;;;;9.50;99.90;;;;;;5074389;28;19920;-56
2022/09/18 00:04:56;;;;;;;;;;;9.90;99.90;;;;;;5056207;28;19927;-56
2022/09/18 00:07:21;;;;;;;;;;;9.40;99.90;;;;;;5074423;28;19924;-56
2022/09/18 00:09:47;;;;;;;;;;;9.40;99.90;;;;;;5074448;28;19921;-56
2022/09/18 00:12:13;;;;;;;;;;;9.40;99.90;;;;;;5074133;28;20294;-57
2022/09/18 00:14:38;;;;;;;;;;;9.30;99.90;;;;;;5074071;28;19974;-57
2022/09/18 00:17:04;;;;;;;;;;;9.30;99.90;;;;;;5074102;28;20011;-57
2022/09/18 00:19:29;;;;;;;;;;;9.30;99.90;;;;;;5074660;28;19916;-57
2022/09/18 00:21:55;;;;;;;;;;;9.30;99.90;;;;;;5074467;28;20333;-57
2022/09/18 00:24:22;;;;;;;;;;;9.40;99.90;;;;;;5074017;28;19931;-57
2022/09/18 00:26:47;;;;;;;;;;;9.40;99.90;;;;;;5074214;28;19995;-57
2022/09/18 00:29:14;;;;;;;;;;;9.50;99.90;;;;;;5072978;28;20010;-57
2022/09/18 00:31:40;;;;;;;;;;;9.50;99.90;;;;;;5074297;28;20325;-57
2022/09/18 00:34:09;;;;;;;;;;;9.50;99.90;;;;;;5072945;28;20290;-58
2022/09/18 00:36:36;;;;;;;;;;;9.60;99.90;;;;;;5073621;28;19927;-57
2022/09/18 00:39:02;;;;;;;;;;;9.60;99.90;;;;;;5074176;28;19920;-56
2022/09/18 00:41:29;;;;;;;;;;;9.60;99.90;;;;;;5073590;28;19927;-56
2022/09/18 00:44:14;;;;;;;;;;;9.60;99.90;;;;;;5062450;28;20012;-56
2022/09/18 00:46:42;;;;;;;;;;;9.60;99.90;;;;;;5073420;28;19949;-56
2022/09/18 00:49:34;;;;;;;;;;;9.60;99.90;;;;;;5073558;28;19927;-56
2022/09/18 00:52:00;;;;;;;;;;;9.50;99.90;;;;;;5058421;28;19927;-56
2022/09/18 00:54:37;;;;;;;;;;;9.50;99.90;;;;;;5055858;28;19924;-57
2022/09/18 00:57:04;;;;;;;;;;;9.50;99.90;;;;;;5073322;28;19921;-56
2022/09/18 00:59:34;;;;;;;;;;;9.50;99.90;;;;;;5073523;28;19920;-57
2022/09/18 01:02:00;;;;;;;;;;;9.50;99.90;;;;;;5073307;28;19928;-56
2022/09/18 01:04:26;;;;;;;;;;;9.50;99.90;;;;;;5073291;28;19927;-56
2022/09/18 01:07:11;;;;;;;;;;;9.60;99.90;;;;;;5073596;28;19963;-56
2022/09/18 01:09:41;;;;;;;;;;;9.60;99.90;;;;;;5057002;28;19973;-56
2022/09/18 01:12:17;;;;;;;;;;;9.70;99.90;;;;;;5073229;28;19920;-56
2022/09/18 01:14:48;;;;;;;;;;;9.70;99.90;;;;;;5073647;28;19970;-57
2022/09/18 01:17:14;;;;;;;;;;;9.80;99.90;;;;;;5063282;28;20378;-57
2022/09/18 01:19:54;;;;;;;;;;;9.80;99.90;;;;;;5073485;28;19935;-61
2022/09/18 01:22:38;;;;;;;;;;;9.80;99.90;;;;;;5073069;28;20607;-60
2022/09/18 01:25:15;;;;;;;;;;;9.80;99.90;;;;;;5073047;28;20409;-62
2022/09/18 01:27:51;;;;;;;;;;;9.90;99.90;;;;;;5065781;28;19928;-60
2022/09/18 01:30:17;;;;;;;;;;;10.00;99.90;;;;;;5072652;28;20386;-62
2022/09/18 01:32:48;;;;;;;;;;;10.00;99.90;;;;;;5072978;28;19931;-62
2022/09/18 01:35:19;;;;;;;;;;;10.00;99.90;;;;;;5072903;28;19967;-57
2022/09/18 01:37:49;;;;;;;;;;;10.00;99.90;;;;;;5073108;28;20007;-56
2022/09/18 01:40:33;;;;;;;;;;;10.10;99.90;;;;;;5072792;28;20006;-58
2022/09/18 01:43:00;;;;;;;;;;;10.10;99.90;;;;;;5072383;28;20361;-56
2022/09/18 01:45:32;;;;;;;;;;;10.20;99.90;;;;;;5054387;28;20313;-57
2022/09/18 01:48:07;;;;;;;;;;;10.20;99.90;;;;;;5072622;28;19924;-57
2022/09/18 01:50:35;;;;;;;;;;;10.10;99.90;;;;;;5072871;28;19924;-56
2022/09/18 01:53:09;;;;;;;;;;;10.60;99.90;;;;;;5072711;28;19935;-56
2022/09/18 01:55:36;;;;;;;;;;;10.10;99.90;;;;;;5072026;28;19920;-56
2022/09/18 01:58:07;;;;;;;;;;;10.10;99.90;;;;;;5070715;28;20017;-57
2022/09/18 02:00:33;;;;;;;;;;;10.10;99.90;;;;;;5070457;28;19924;-57
2022/09/18 02:03:01;;;;;;;;;;;10.10;99.90;;;;;;5070960;28;19949;-56
2022/09/18 02:05:29;;;;;;;;;;;10.20;99.90;;;;;;5060151;28;20399;-56
2022/09/18 02:08:01;;;;;;;;;;;10.00;99.90;;;;;;5056997;28;19920;-56
2022/09/18 02:10:30;;;;;;;;;;;10.00;99.90;;;;;;5070497;28;19920;-56
2022/09/18 02:12:55;;;;;;;;;;;10.00;99.90;;;;;;5072101;28;19927;-56
2022/09/18 02:15:23;;;;;;;;;;;10.00;99.90;;;;;;5072600;28;19920;-56
2022/09/18 02:17:57;;;;;;;;;;;10.00;99.90;;;;;;5072108;28;20321;-56
2022/09/18 02:20:27;;;;;;;;;;;9.90;99.90;;;;;;5072053;28;19921;-57
2022/09/18 02:22:55;;;;;;;;;;;9.80;99.90;;;;;;5072300;28;19920;-56
2022/09/18 02:25:24;;;;;;;;;;;9.80;99.90;;;;;;5072608;28;19959;-57
2022/09/18 02:27:52;;;;;;;;;;;9.80;99.90;;;;;;5072394;28;19955;-56
2022/09/18 02:30:19;;;;;;;;;;;9.80;99.90;;;;;;5072467;28;19924;-56
2022/09/18 02:32:45;;;;;;;;;;;9.80;99.90;;;;;;5071889;28;19935;-56
2022/09/18 02:35:12;;;;;;;;;;;9.70;99.90;;;;;;5071206;28;19927;-57
2022/09/18 02:37:44;;;;;;;;;;;9.80;99.90;;;;;;5072054;28;19920;-56
2022/09/18 02:40:18;;;;;;;;;;;9.70;99.90;;;;;;5072238;28;19967;-56
2022/09/18 02:42:51;;;;;;;;;;;9.70;99.90;;;;;;5072222;28;20121;-56
2022/09/18 02:45:22;;;;;;;;;;;9.70;99.90;;;;;;5072436;28;19920;-56
2022/09/18 02:48:03;;;;;;;;;;;9.70;99.90;;;;;;5072351;28;20368;-56
2022/09/18 02:50:46;;;;;;;;;;;9.60;99.90;;;;;;5071726;28;19979;-56
2022/09/18 02:53:18;;;;;;;;;;;9.60;99.90;;;;;;5071687;28;20362;-57
2022/09/18 02:55:43;;;;;;;;;;;9.60;99.90;;;;;;5072152;28;20259;-56
2022/09/18 02:58:14;;;;;;;;;;;9.60;99.90;;;;;;5073734;28;19931;-56
2022/09/18 03:00:43;;;;;;;;;;;9.50;99.90;;;;;;5076160;28;19920;-56
2022/09/18 03:03:12;;;;;;;;;;;9.70;99.90;;;;;;5075952;28;19920;-56
2022/09/18 03:05:38;;;;;;;;;;;9.60;99.90;;;;;;5071103;28;20003;-56
2022/09/18 03:08:03;;;;;;;;;;;9.60;99.90;;;;;;5075549;28;20374;-56
2022/09/18 03:10:30;;;;;;;;;;;9.70;99.90;;;;;;5075361;28;20336;-56
2022/09/18 03:12:55;;;;;;;;;;;9.70;99.90;;;;;;5075701;28;19923;-58
2022/09/18 03:15:21;;;;;;;;;;;9.90;99.90;;;;;;5075738;28;20357;-56
2022/09/18 03:17:46;;;;;;;;;;;9.70;99.90;;;;;;5066038;28;19920;-56
2022/09/18 03:20:12;;;;;;;;;;;9.70;99.90;;;;;;5075049;28;19928;-56
2022/09/18 03:22:37;;;;;;;;;;;9.70;99.90;;;;;;5075388;28;19920;-56
2022/09/18 03:25:03;;;;;;;;;;;9.80;99.90;;;;;;5075379;28;19920;-56
2022/09/18 03:27:29;;;;;;;;;;;9.80;99.90;;;;;;5075332;28;19931;-56
2022/09/18 03:29:54;;;;;;;;;;;9.80;99.90;;;;;;5075428;28;20412;-56
2022/09/18 03:32:20;;;;;;;;;;;9.80;99.90;;;;;;5075423;28;20381;-56
2022/09/18 03:34:45;;;;;;;;;;;9.80;99.90;;;;;;5074024;28;20377;-57
2022/09/18 03:37:11;;;;;;;;;;;9.80;99.90;;;;;;5074771;28;19986;-57
2022/09/18 03:39:37;;;;;;;;;;;9.80;99.90;;;;;;5075106;28;19966;-57
2022/09/18 03:42:02;;;;;;;;;;;9.80;99.90;;;;;;5074841;28;19965;-57
2022/09/18 03:44:28;;;;;;;;;;;9.80;99.90;;;;;;5075122;28;20381;-58
2022/09/18 03:46:53;;;;;;;;;;;9.80;99.90;;;;;;5075311;28;20355;-57
2022/09/18 03:49:22;;;;;;;;;;;9.80;99.90;;;;;;5072374;28;20378;-57
2022/09/18 03:51:47;;;;;;;;;;;9.80;99.90;;;;;;5073713;28;20007;-58
2022/09/18 03:54:13;;;;;;;;;;;9.90;99.90;;;;;;5074939;28;20011;-58
2022/09/18 03:56:39;;;;;;;;;;;9.80;99.90;;;;;;5074811;28;19916;-59
2022/09/18 03:59:04;;;;;;;;;;;9.90;99.90;;;;;;5075113;28;20406;-64
2022/09/18 04:01:30;;;;;;;;;;;9.90;99.90;;;;;;5074831;28;19986;-63
2022/09/18 04:03:55;;;;;;;;;;;9.90;99.90;;;;;;5069814;28;20282;-62
2022/09/18 04:06:21;;;;;;;;;;;9.90;99.90;;;;;;5064447;28;19921;-63
2022/09/18 04:08:47;;;;;;;;;;;10.00;99.90;;;;;;5074767;28;20011;-62
2022/09/18 04:11:12;;;;;;;;;;;9.90;99.90;;;;;;5074464;28;20285;-61
2022/09/18 04:13:38;;;;;;;;;;;10.00;99.90;;;;;;5074714;28;19991;-63
2022/09/18 04:16:03;;;;;;;;;;;10.00;99.90;;;;;;5074017;28;19931;-62
2022/09/18 04:18:29;;;;;;;;;;;9.90;99.90;;;;;;5065254;28;19927;-63
2022/09/18 04:20:55;;;;;;;;;;;9.90;99.90;;;;;;5074466;28;19920;-63
2022/09/18 04:23:21;;;;;;;;;;;9.90;99.90;;;;;;5074366;28;19943;-63
2022/09/18 04:25:46;;;;;;;;;;;9.90;99.90;;;;;;5074383;28;20265;-63
2022/09/18 04:28:12;;;;;;;;;;;9.90;99.90;;;;;;5074465;28;19924;-56
2022/09/18 04:30:38;;;;;;;;;;;9.90;99.90;;;;;;5072465;28;20417;-56
2022/09/18 04:33:03;;;;;;;;;;;9.90;99.90;;;;;;5071254;28;19924;-56
2022/09/18 04:35:30;;;;;;;;;;;9.90;99.90;;;;;;5073394;28;19924;-56
2022/09/18 04:37:55;;;;;;;;;;;9.90;99.90;;;;;;5073904;28;19963;-56
2022/09/18 04:40:21;;;;;;;;;;;10.00;99.90;;;;;;5073996;28;20408;-56
2022/09/18 04:42:46;;;;;;;;;;;10.00;99.90;;;;;;5073904;28;19935;-56
2022/09/18 04:45:12;;;;;;;;;;;10.00;99.90;;;;;;5073768;28;19966;-56
2022/09/18 04:47:37;;;;;;;;;;;10.00;99.90;;;;;;5073445;28;19960;-57
2022/09/18 04:50:03;;;;;;;;;;;10.00;99.90;;;;;;5073356;28;19929;-56
2022/09/18 04:52:29;;;;;;;;;;;10.00;99.90;;;;;;5073379;28;19920;-56
2022/09/18 04:54:54;;;;;;;;;;;10.00;99.90;;;;;;5073869;28;19927;-57
2022/09/18 04:57:20;;;;;;;;;;;10.00;99.90;;;;;;5055955;28;19921;-56
2022/09/18 04:59:45;;;;;;;;;;;10.00;99.90;;;;;;5073830;28;19920;-57
2022/09/18 05:02:11;;;;;;;;;;;10.00;99.90;;;;;;5073430;28;19999;-56
2022/09/18 05:04:36;;;;;;;;;;;9.90;99.90;;;;;;5073013;28;19973;-56
2022/09/18 05:07:03;;;;;;;;;;;9.90;99.90;;;;;;5073534;28;19966;-56
2022/09/18 05:09:29;;;;;;;;;;;10.20;99.90;;;;;;5073494;28;19927;-56
2022/09/18 05:11:55;;;;;;;;;;;9.90;99.90;;;;;;5073512;28;20003;-56
2022/09/18 05:14:21;;;;;;;;;;;9.90;99.90;;;;;;5073470;28;19920;-56
2022/09/18 05:16:46;;;;;;;;;;;10.00;99.90;;;;;;5073507;28;19958;-56
2022/09/18 05:19:12;;;;;;;;;;;10.00;99.90;;;;;;5058927;28;19947;-56
2022/09/18 05:21:38;;;;;;;;;;;10.00;99.90;;;;;;5072525;28;19970;-56
2022/09/18 05:24:03;;;;;;;;;;;9.90;99.90;;;;;;5072577;28;20112;-57
2022/09/18 05:26:30;;;;;;;;;;;10.00;99.90;;;;;;5073051;28;20355;-56
2022/09/18 05:28:55;;;;;;;;;;;9.90;99.90;;;;;;5073448;28;19967;-57
2022/09/18 05:31:21;;;;;;;;;;;10.00;99.90;;;;;;5073183;28;19986;-62
2022/09/18 05:33:46;;;;;;;;;;;10.00;99.90;;;;;;5066848;28;20286;-61
2022/09/18 05:36:12;;;;;;;;;;;9.90;99.90;;;;;;5066159;28;20002;-56
2022/09/18 05:38:38;;;;;;;;;;;10.00;99.90;;;;;;5072518;28;20412;-56
2022/09/18 05:41:03;;;;;;;;;;;10.00;99.90;;;;;;5072980;28;19959;-57
2022/09/18 05:43:29;;;;;;;;;;;9.90;99.90;;;;;;5072841;28;19928;-56
2022/09/18 05:45:55;;;;;;;;;;;10.00;99.90;;;;;;5073048;28;19921;-56
2022/09/18 05:48:21;;;;;;;;;;;10.00;99.90;;;;;;5072229;28;19974;-56
2022/09/18 05:50:47;;;;;;;;;;;10.00;99.90;;;;;;5066680;28;20274;-57
2022/09/18 05:53:13;;;;;;;;;;;10.00;99.90;;;;;;5069412;28;19920;-57
2022/09/18 05:55:39;;;;;;;;;;;10.10;99.90;;;;;;5072611;28;19920;-56
2022/09/18 05:58:05;;;;;;;;;;;10.10;99.90;;;;;;5072532;28;19924;-56
2022/09/18 06:00:32;;;;;;;;;;;10.10;99.90;;;;;;5072799;28;19920;-63
2022/09/18 06:02:59;;;;;;;;;;;10.10;99.90;;;;;;5071901;28;20259;-59
2022/09/18 06:05:25;;;;;;;;;;;10.10;99.90;;;;;;5057752;28;20072;-56
2022/09/18 06:07:51;;;;;;;;;;;10.10;99.90;;;;;;5072745;28;19920;-56
2022/09/18 06:10:17;;;;;;;;;;;10.30;99.90;;;;;;5072270;28;19978;-56
2022/09/18 06:12:43;;;;;;;;;;;10.10;99.90;;;;;;5054847;28;20005;-57
2022/09/18 06:15:09;;;;;;;;;;;10.10;99.90;;;;;;5072596;28;20017;-56
2022/09/18 06:17:35;;;;;;;;;;;10.20;99.90;;;;;;5062966;28;20007;-57
2022/09/18 06:20:00;;;;;;;;;;;10.10;99.90;;;;;;5072246;28;19927;-56
2022/09/18 06:22:26;;;;;;;;;;;10.10;99.90;;;;;;5071653;28;19962;-60
2022/09/18 06:24:51;;;;;;;;;;;10.10;99.90;;;;;;5072502;28;19921;-65
2022/09/18 06:27:17;;;;;;;;;;;10.10;99.90;;;;;;5054594;28;20358;-65
2022/09/18 06:29:43;;;;;;;;;;;10.10;99.90;;;;;;5072399;28;20297;-62
2022/09/18 06:32:08;;;;;;;;;;;10.20;99.90;;;;;;5072759;28;19920;-62
2022/09/18 06:34:34;;;;;;;;;;;10.20;99.90;;;;;;5072479;28;20473;-63
2022/09/18 06:37:00;;;;;;;;;;;10.30;99.90;;;;;;5076543;28;19920;-59
2022/09/18 06:39:25;;;;;;;;;;;10.30;99.90;;;;;;5075526;28;19924;-57
2022/09/18 06:41:51;;;;;;;;;;;10.30;99.90;;;;;;5076336;28;19921;-58
2022/09/18 06:44:16;;;;;;;;;;;10.30;99.90;;;;;;5073193;28;19931;-58
2022/09/18 06:46:42;;;;;;;;;;;10.40;99.90;;;;;;5074800;28;20011;-56
2022/09/18 06:49:07;;;;;;;;;;;10.50;99.90;;;;;;5075055;28;19923;-57
2022/09/18 06:51:33;;;;;;;;;;;10.80;99.90;;;;;;5073995;28;19920;-56
2022/09/18 06:53:58;;;;;;;;;;;10.60;99.90;;;;;;5075305;28;19924;-59
2022/09/18 06:56:24;;;;;;;;;;;10.60;99.90;;;;;;5068560;28;19928;-59
2022/09/18 06:58:52;;;;;;;;;;;10.70;99.90;;;;;;5066245;28;20011;-58
2022/09/18 07:01:18;;;;;;;;;;;10.70;99.90;;;;;;5061026;28;19924;-59
2022/09/18 07:03:46;;;;;;;;;;;11.40;99.90;;;;;;5075488;28;20091;-61
2022/09/18 07:06:12;;;;;;;;;;;10.90;99.90;;;;;;5075079;28;19925;-58
2022/09/18 07:08:37;;;;;;;;;;;11.00;99.90;;;;;;5075176;28;20326;-58
2022/09/18 07:11:03;;;;;;;;;;;11.10;99.90;;;;;;5075336;28;19920;-61
2022/09/18 07:13:30;;;;;;;;;;;11.10;99.90;;;;;;5075541;28;19927;-62
2022/09/18 07:15:56;;;;;;;;;;;10.90;99.90;;;;;;5075069;28;19920;-64
2022/09/18 07:18:22;;;;;;;;;;;10.90;99.90;;;;;;5075048;28;19966;-57
2022/09/18 07:20:47;;;;;;;;;;;10.70;99.90;;;;;;5071755;28;20378;-65
2022/09/18 07:23:13;;;;;;;;;;;10.80;99.90;;;;;;5070039;28;20149;-65
2022/09/18 07:25:38;;;;;;;;;;;11.10;99.90;;;;;;5071139;28;19927;-65
2022/09/18 07:28:06;;;;;;;;;;;10.80;99.90;;;;;;5069971;28;19929;-64
2022/09/18 07:30:32;;;;;;;;;;;10.90;99.90;;;;;;5063041;28;19925;-65
2022/09/18 07:32:59;;;;;;;;;;;11.00;99.90;;;;;;5066743;28;20373;-61
2022/09/18 07:35:25;;;;;;;;;;;10.90;99.90;;;;;;5067503;28;19972;-57
2022/09/18 07:37:50;;;;;;;;;;;10.90;99.90;;;;;;5071135;28;20010;-66
2022/09/18 07:40:16;;;;;;;;;;;11.00;99.90;;;;;;5065699;28;20042;-57
2022/09/18 07:42:41;;;;;;;;;;;11.00;99.90;;;;;;5065321;28;19985;-59
2022/09/18 07:45:07;;;;;;;;;;;11.00;99.90;;;;;;5061274;28;20015;-63
2022/09/18 07:47:33;;;;;;;;;;;11.10;99.90;;;;;;5066887;28;19924;-58
2022/09/18 07:49:59;;;;;;;;;;;11.10;99.90;;;;;;5069185;28;20664;-63
2022/09/18 07:52:24;;;;;;;;;;;11.10;99.90;;;;;;5074204;28;19924;-62
2022/09/18 07:54:50;;;;;;;;;;;11.10;99.90;;;;;;5074456;28;19921;-62
2022/09/18 07:57:16;;;;;;;;;;;11.10;99.90;;;;;;5073136;28;20039;-64
2022/09/18 07:59:41;;;;;;;;;;;11.10;99.90;;;;;;5055476;28;19927;-64
2022/09/18 08:02:07;;;;;;;;;;;11.10;99.90;;;;;;5068011;28;19932;-64
2022/09/18 08:04:32;;;;;;;;;;;11.00;99.90;;;;;;5063002;28;19924;-65
2022/09/18 08:07:02;;;;;;;;;;;11.00;99.90;;;;;;5040116;28;20378;-64
2022/09/18 08:09:28;;;;;;;;;;;11.00;99.90;;;;;;5043501;28;20460;-63
2022/09/18 08:11:54;;;;;;;;;;;11.10;99.90;;;;;;5062163;28;19959;-65
2022/09/18 08:14:19;;;;;;;;;;;11.10;99.90;;;;;;5059807;28;20005;-64
2022/09/18 08:16:45;;;;;;;;;;;11.10;99.90;;;;;;5060881;28;20378;-65
2022/09/18 08:19:14;;;;;;;;;;;11.20;99.90;;;;;;5068331;28;20377;-56
2022/09/18 08:21:40;;;;;;;;;;;11.30;99.90;;;;;;5058174;28;20007;-58
2022/09/18 08:24:05;;;;;;;;;;;11.30;99.90;;;;;;5054647;28;20031;-57
2022/09/18 08:26:34;;;;;;;;;;;11.40;99.90;;;;;;5059217;28;20049;-61
2022/09/18 08:29:00;;;;;;;;;;;11.30;99.90;;;;;;5056652;28;19924;-61
2022/09/18 08:31:25;;;;;;;;;;;11.30;99.90;;;;;;5058117;28;19925;-57
2022/09/18 08:33:51;;;;;;;;;;;11.40;99.90;;;;;;5042038;28;19921;-57
2022/09/18 08:36:17;;;;;;;;;;;11.20;99.90;;;;;;5041846;28;19925;-60
2022/09/18 08:38:42;;;;;;;;;;;11.20;99.90;;;;;;5040548;28;19928;-57
2022/09/18 08:41:20;;;;;;;;;;;11.30;99.90;;;;;;5033523;28;19927;-56
2022/09/18 08:43:47;;;;;;;;;;;11.10;99.90;;;;;;5036320;28;19920;-59
2022/09/18 08:46:15;;;;;;;;;;;11.10;99.90;;;;;;5042247;28;20021;-57
2022/09/18 08:48:49;;;;;;;;;;;11.20;99.90;;;;;;5045574;28;20007;-56
2022/09/18 08:51:27;;;;;;;;;;;11.10;99.90;;;;;;5042512;28;19929;-62
2022/09/18 08:53:55;;;;;;;;;;;11.00;99.90;;;;;;5038864;28;19935;-62
2022/09/18 08:56:22;;;;;;;;;;;11.00;99.90;;;;;;5036469;28;19925;-61
2022/09/18 08:58:59;;;;;;;;;;;11.10;99.90;;;;;;5036159;28;20399;-60
2022/09/18 09:01:31;;;;;;;;;;;11.10;99.90;;;;;;5033576;28;19932;-60
2022/09/18 09:04:00;;;;;;;;;;;11.20;99.90;;;;;;5033928;28;20379;-56
2022/09/18 09:06:41;;;;;;;;;;;11.30;99.90;;;;;;5034256;28;19921;-57
2022/09/18 09:09:12;;;;;;;;;;;11.20;99.90;;;;;;5034044;28;19921;-60
2022/09/18 09:11:38;;;;;;;;;;;11.20;99.90;;;;;;5047607;28;19924;-62
2022/09/18 09:14:09;;;;;;;;;;;11.20;99.90;;;;;;5042849;28;19925;-56
2022/09/18 09:16:57;;;;;;;;;;;11.10;99.90;;;;;;5044538;28;19944;-57
2022/09/18 09:19:26;;;;;;;;;;;11.10;99.90;;;;;;5036387;28;19932;-61
2022/09/18 09:21:55;;;;;;;;;;;11.10;99.90;;;;;;5033917;28;19936;-61
2022/09/18 09:24:29;;;;;;;;;;;11.10;99.90;;;;;;5034398;28;19943;-57
2022/09/18 09:26:56;;;;;;;;;;;11.00;99.90;;;;;;5035363;28;19928;-58
2022/09/18 09:29:23;;;;;;;;;;;10.90;99.90;;;;;;5036027;28;19921;-59
2022/09/18 09:31:52;;;;;;;;;;;10.90;99.90;;;;;;5032629;28;19925;-61
2022/09/18 09:34:23;;;;;;;;;;;11.30;99.90;;;;;;5046001;28;20306;-61
2022/09/18 09:36:49;;;;;;;;;;;11.00;99.90;;;;;;5063761;28;19920;-60
2022/09/18 09:39:27;;;;;;;;;;;11.00;99.90;;;;;;5057360;28;19929;-60
2022/09/18 09:41:52;;;;;;;;;;;11.10;99.90;;;;;;5056279;28;19920;-59
2022/09/18 09:44:37;;;;;;;;;;;11.30;99.90;;;;;;5060009;28;19931;-60
2022/09/18 09:47:09;;;;;;;;;;;11.40;99.90;;;;;;5052489;28;19940;-59
2022/09/18 09:49:35;;;;;;;;;;;11.40;99.90;;;;;;5056423;28;20050;-59
2022/09/18 09:52:11;;;;;;;;;;;11.40;99.90;;;;;;5065078;28;20023;-57
2022/09/18 09:54:37;;;;;;;;;;;11.40;99.90;;;;;;5072100;28;20405;-57
2022/09/18 09:57:02;;;;;;;;;;;11.50;99.90;;;;;;5071474;28;20010;-57
2022/09/18 09:59:37;;;;;;;;;;;11.60;99.90;;;;;;5072584;28;19920;-57
2022/09/18 10:02:14;;;;;;;;;;;11.60;99.90;;;;;;5072142;28;20282;-57
2022/09/18 10:04:47;;;;;;;;;;;11.60;99.90;;;;;;5071248;28;20298;-57
2022/09/18 10:07:31;;;;;;;;;;;11.70;99.90;;;;;;5072133;28;19924;-57
2022/09/18 10:10:00;;;;;;;;;;;11.70;99.90;;;;;;5072503;28;20021;-57
2022/09/18 10:12:38;;;;;;;;;;;11.90;99.90;;;;;;5072172;28;19967;-57
2022/09/18 10:15:17;;;;;;;;;;;12.00;99.90;;;;;;5072670;28;19921;-57
2022/09/18 10:17:43;;;;;;;;;;;12.00;99.90;;;;;;5064294;28;19948;-57
2022/09/18 10:20:16;;;;;;;;;;;12.10;99.90;;;;;;5072083;28;19974;-57
2022/09/18 10:22:41;;;;;;;;;;;12.10;99.90;;;;;;5071897;28;19927;-58
2022/09/18 10:25:26;;;;;;;;;;;12.30;99.90;;;;;;5069350;28;19920;-56
2022/09/18 10:27:52;;;;;;;;;;;12.30;99.90;;;;;;5065865;28;19967;-57
2022/09/18 10:30:18;;;;;;;;;;;12.40;99.90;;;;;;5068149;28;19939;-56
2022/09/18 10:32:43;;;;;;;;;;;12.50;99.90;;;;;;5068103;28;20328;-57
2022/09/18 10:35:33;;;;;;;;;;;12.40;99.90;;;;;;5065232;28;19924;-57
2022/09/18 10:37:58;;;;;;;;;;;12.40;99.90;;;;;;5061630;28;19947;-57
2022/09/18 10:40:38;;;;;;;;;;;12.60;99.90;;;;;;5043554;28;19924;-56
2022/09/18 10:43:14;;;;;;;;;;;12.60;99.90;;;;;;5061855;28;19924;-57
2022/09/18 10:45:40;;;;;;;;;;;12.70;99.90;;;;;;5044549;28;19924;-57
2022/09/18 10:48:13;;;;;;;;;;;12.80;99.90;;;;;;5061578;28;19986;-57
2022/09/18 10:50:50;;;;;;;;;;;12.60;99.90;;;;;;5060891;28;20762;-57
2022/09/18 10:53:28;;;;;;;;;;;12.50;99.90;;;;;;5059934;28;20286;-58
2022/09/18 10:55:54;;;;;;;;;;;12.50;99.90;;;;;;5059095;28;19947;-57
2022/09/18 10:58:25;;;;;;;;;;;12.60;99.90;;;;;;5062559;28;20054;-57
2022/09/18 11:00:57;;;;;;;;;;;12.80;99.90;;;;;;5057884;28;19927;-57
2022/09/18 11:03:43;;;;;;;;;;;13.10;99.90;;;;;;5048630;28;20382;-57
2022/09/18 11:06:16;;;;;;;;;;;13.40;99.90;;;;;;5063195;28;19925;-57
2022/09/18 11:08:45;;;;;;;;;;;13.20;99.90;;;;;;5065945;28;20418;-57
2022/09/18 11:11:30;;;;;;;;;;;13.40;99.90;;;;;;5064979;28;19974;-57
2022/09/18 11:13:57;;;;;;;;;;;13.20;99.90;;;;;;5068813;28;19924;-57
2022/09/18 11:16:27;;;;;;;;;;;13.50;99.90;;;;;;5065583;28;20275;-57
2022/09/18 11:19:04;;;;;;;;;;;13.70;99.90;;;;;;5066166;28;20435;-58
2022/09/18 11:21:30;;;;;;;;;;;13.80;99.90;;;;;;5053607;28;20011;-57
2022/09/18 11:24:03;;;;;;;;;;;13.80;99.90;;;;;;5063307;28;20010;-57
2022/09/18 11:26:29;;;;;;;;;;;13.80;99.90;;;;;;5071426;28;19931;-57
2022/09/18 11:29:01;;;;;;;;;;;13.80;99.90;;;;;;5070049;28;19928;-57
2022/09/18 11:31:38;;;;;;;;;;;13.70;99.90;;;;;;5071709;28;20069;-56
2022/09/18 11:34:09;;;;;;;;;;;14.00;99.90;;;;;;5071387;28;20011;-57
2022/09/18 11:36:39;;;;;;;;;;;14.30;99.90;;;;;;5051596;28;19928;-57
2022/09/18 11:39:11;;;;;;;;;;;14.20;99.90;;;;;;5066537;28;20382;-57
2022/09/18 11:41:37;;;;;;;;;;;14.50;99.90;;;;;;5069662;28;19925;-57
2022/09/18 11:44:04;;;;;;;;;;;14.80;99.90;;;;;;5071106;28;20062;-57
2022/09/18 11:46:45;;;;;;;;;;;15.00;99.90;;;;;;5071068;28;19931;-57
2022/09/18 11:49:15;;;;;;;;;;;15.30;99.90;;;;;;5071493;28;19977;-57
2022/09/18 11:51:43;;;;;;;;;;;15.30;99.90;;;;;;5070597;28;19935;-57
2022/09/18 11:54:15;;;;;;;;;;;15.20;99.90;;;;;;5064452;28;19970;-57
2022/09/18 11:56:44;;;;;;;;;;;14.80;99.90;;;;;;5063469;28;19967;-57
2022/09/18 11:59:13;;;;;;;;;;;15.30;99.90;;;;;;5056409;28;19924;-57
2022/09/18 12:01:44;;;;;;;;;;;15.20;99.90;;;;;;5058579;28;19931;-57
2022/09/18 12:04:22;;;;;;;;;;;15.30;99.90;;;;;;5056954;28;20305;-57
2022/09/18 12:06:57;;;;;;;;;;;15.10;99.90;;;;;;5059667;28;19924;-57
2022/09/18 12:09:38;;;;;;;;;;;14.90;99.90;;;;;;5055224;28;19967;-58
2022/09/18 12:12:08;;;;;;;;;;;14.90;99.90;;;;;;5056022;28;19925;-58
2022/09/18 12:14:57;;;;;;;;;;;14.80;99.90;;;;;;5057662;28;19967;-57
2022/09/18 12:17:25;;;;;;;;;;;15.00;99.90;;;;;;5059967;28;20565;-57
2022/09/18 12:19:56;;;;;;;;;;;15.30;99.90;;;;;;5054683;28;19924;-57
2022/09/18 12:22:42;;;;;;;;;;;15.60;99.90;;;;;;5057397;28;19964;-57
2022/09/18 12:25:15;;;;;;;;;;;15.80;99.90;;;;;;5057114;28;19944;-57
2022/09/18 12:27:49;;;;;;;;;;;16.20;99.90;;;;;;5056993;28;20070;-58
2022/09/18 12:30:14;;;;;;;;;;;16.50;99.90;;;;;;5055457;28;19963;-57
2022/09/18 12:32:41;;;;;;;;;;;16.50;99.90;;;;;;5052762;28;20402;-56
2022/09/18 12:35:25;;;;;;;;;;;16.50;99.90;;;;;;5058183;28;19928;-57
2022/09/18 12:38:09;;;;;;;;;;;16.50;99.90;;;;;;5058698;28;20375;-57
2022/09/18 12:40:38;;;;;;;;;;;16.40;99.90;;;;;;5059605;28;19928;-57
2022/09/18 12:43:07;;;;;;;;;;;16.00;99.90;;;;;;5062294;28;20203;-57
2022/09/18 12:45:33;;;;;;;;;;;16.20;99.90;;;;;;5061119;28;19924;-57
2022/09/18 12:48:00;;;;;;;;;;;17.30;99.90;;;;;;5060654;28;19929;-57
2022/09/18 12:50:28;;;;;;;;;;;16.40;99.90;;;;;;5059338;28;20377;-57
2022/09/18 12:52:57;;;;;;;;;;;16.40;99.90;;;;;;5061296;28;19979;-57
2022/09/18 12:55:31;;;;;;;;;;;16.70;99.90;;;;;;5060937;28;19976;-57
2022/09/18 12:58:00;;;;;;;;;;;16.50;99.90;;;;;;5059639;28;20373;-57
2022/09/18 13:00:27;;;;;;;;;;;16.70;99.90;;;;;;5055732;28;20298;-57
2022/09/18 13:02:53;;;;;;;;;;;16.30;99.90;;;;;;5059230;28;19977;-57
2022/09/18 13:05:25;;;;;;;;;;;15.90;99.90;;;;;;5039530;28;20013;-57
2022/09/18 13:08:09;;;;;;;;;;;15.70;99.90;;;;;;5054921;28;19925;-57
2022/09/18 13:10:42;;;;;;;;;;;15.40;99.90;;;;;;5055217;28;19935;-57
2022/09/18 13:13:20;;;;;;;;;;;15.30;99.90;;;;;;5056925;28;19928;-57
2022/09/18 13:15:53;;;;;;;;;;;14.80;99.90;;;;;;5057804;28;19936;-57
2022/09/18 13:18:45;;;;;;;;;;;13.80;99.90;;;;;;5056141;28;20272;-56
2022/09/18 13:21:21;;;;;;;;;;;13.50;99.90;;;;;;5050664;28;20338;-56
2022/09/18 13:23:48;;;;;;;;;;;13.90;99.90;;;;;;5059313;28;19932;-57
2022/09/18 13:26:14;;;;;;;;;;;13.80;99.90;;;;;;5054465;28;19928;-57
2022/09/18 13:28:40;;;;;;;;;;;13.80;99.90;;;;;;5055391;28;19932;-57
2022/09/18 13:31:18;;;;;;;;;;;13.60;99.90;;;;;;5054753;28;19951;-57
2022/09/18 13:34:07;;;;;;;;;;;13.60;99.90;;;;;;5056050;28;19947;-56
2022/09/18 13:36:34;;;;;;;;;;;13.60;99.90;;;;;;5042830;28;20034;-57
2022/09/18 13:39:20;;;;;;;;;;;13.30;99.90;;;;;;5036569;28;19924;-58
2022/09/18 13:41:50;;;;;;;;;;;13.20;99.90;;;;;;5053314;28;19977;-57
2022/09/18 13:44:20;;;;;;;;;;;13.30;99.90;;;;;;5054669;28;19925;-57
2022/09/18 13:46:47;;;;;;;;;;;13.20;99.90;;;;;;5056256;28;19968;-57
2022/09/18 13:49:21;;;;;;;;;;;13.10;99.90;;;;;;5054177;28;20115;-57
2022/09/18 13:51:47;;;;;;;;;;;13.10;99.90;;;;;;5061422;28;19924;-57
2022/09/18 13:54:13;;;;;;;;;;;13.10;99.90;;;;;;5059411;28;19974;-57
2022/09/18 13:56:59;;;;;;;;;;;13.30;99.90;;;;;;5052849;28;19925;-57
2022/09/18 13:59:42;;;;;;;;;;;13.10;99.90;;;;;;5044271;28;19925;-56
2022/09/18 14:02:21;;;;;;;;;;;13.20;99.90;;;;;;5051439;28;19929;-57
2022/09/18 14:04:49;;;;;;;;;;;13.10;99.90;;;;;;5051621;28;19924;-57
2022/09/18 14:07:17;;;;;;;;;;;13.10;99.90;;;;;;5054619;28;19925;-57
2022/09/18 14:10:12;;;;;;;;;;;13.10;99.90;;;;;;5057763;28;19931;-57
2022/09/18 14:12:37;;;;;;;;;;;13.10;99.90;;;;;;5034423;28;20505;-57
2022/09/18 14:15:03;;;;;;;;;;;13.20;99.90;;;;;;5057344;28;20535;-57
2022/09/18 14:17:30;;;;;;;;;;;13.20;99.90;;;;;;5052036;28;19931;-57
2022/09/18 14:20:22;;;;;;;;;;;13.20;99.90;;;;;;5057508;28;19958;-58
2022/09/18 14:22:47;;;;;;;;;;;13.30;99.90;;;;;;5050606;28;19932;-57
2022/09/18 14:25:13;;;;;;;;;;;13.30;99.90;;;;;;5054258;28;19925;-58
2022/09/18 14:27:48;;;;;;;;;;;13.50;99.90;;;;;;5036383;28;19966;-57
2022/09/18 14:30:32;;;;;;;;;;;13.60;99.90;;;;;;5052766;28;19978;-57
2022/09/18 14:33:06;;;;;;;;;;;13.80;99.90;;;;;;5050192;28;19924;-58